sensor_id;sensor_type;location;lat;lon;timestamp;P1;durP1;ratioP1;P2;durP2;ratioP2
63203;SDS011;49297;43.210;27.914;2023-05-08T00:00:37;9.65;;;8.57;;
63203;SDS011;49297;43.210;27.914;2023-05-08T00:03:07;10.27;;;8.93;;
63203;SDS011;49297;43.210;27.914;2023-05-08T00:05:39;10.00;;;8.90;;
63203;SDS011;49297;43.210;27.914;2023-05-08T00:08:05;12.00;;;9.30;;
63203;SDS011;49297;43.210;27.914;2023-05-08T00:10:31;15.65;;;10.57;;
63203;SDS011;49297;43.210;27.914;2023-05-08T00:12:58;11.05;;;9.77;;
63203;SDS011;49297;43.210;27.914;2023-05-08T00:15:24;9.55;;;8.70;;
63203;SDS011;49297;43.210;27.914;2023-05-08T00:20:19;15.17;;;8.93;;
63203;SDS011;49297;43.210;27.914;2023-05-08T00:22:44;10.50;;;8.73;;
63203;SDS011;49297;43.210;27.914;2023-05-08T00:25:10;10.37;;;9.10;;
63203;SDS011;49297;43.210;27.914;2023-05-08T00:27:36;10.25;;;8.57;;
63203;SDS011;49297;43.210;27.914;2023-05-08T00:30:03;11.55;;;9.45;;
63203;SDS011;49297;43.210;27.914;2023-05-08T00:32:30;11.65;;;10.50;;
63203;SDS011;49297;43.210;27.914;2023-05-08T00:34:56;12.10;;;10.33;;
63203;SDS011;49297;43.210;27.914;2023-05-08T00:37:22;12.32;;;9.63;;
63203;SDS011;49297;43.210;27.914;2023-05-08T00:39:49;10.10;;;7.97;;
63203;SDS011;49297;43.210;27.914;2023-05-08T00:42:17;15.37;;;9.20;;
63203;SDS011;49297;43.210;27.914;2023-05-08T00:44:43;16.05;;;9.70;;
63203;SDS011;49297;43.210;27.914;2023-05-08T00:47:10;14.07;;;10.40;;
63203;SDS011;49297;43.210;27.914;2023-05-08T00:49:36;13.98;;;12.45;;
63203;SDS011;49297;43.210;27.914;2023-05-08T00:52:03;16.23;;;14.48;;
63203;SDS011;49297;43.210;27.914;2023-05-08T00:54:34;19.83;;;16.25;;
63203;SDS011;49297;43.210;27.914;2023-05-08T00:57:01;16.30;;;14.75;;
63203;SDS011;49297;43.210;27.914;2023-05-08T00:59:32;15.60;;;13.95;;
63203;SDS011;49297;43.210;27.914;2023-05-08T01:01:59;15.70;;;14.13;;
63203;SDS011;49297;43.210;27.914;2023-05-08T01:04:26;13.80;;;12.35;;
63203;SDS011;49297;43.210;27.914;2023-05-08T01:06:53;13.67;;;12.37;;
63203;SDS011;49297;43.210;27.914;2023-05-08T01:09:19;14.00;;;12.53;;
63203;SDS011;49297;43.210;27.914;2023-05-08T01:20:25;13.00;;;11.70;;
63203;SDS011;49297;43.210;27.914;2023-05-08T01:34:05;17.08;;;15.38;;
63203;SDS011;49297;43.210;27.914;2023-05-08T01:36:47;26.98;;;24.38;;
63203;SDS011;49297;43.210;27.914;2023-05-08T01:42:01;39.72;;;36.50;;
63203;SDS011;49297;43.210;27.914;2023-05-08T01:44:37;42.72;;;39.45;;
63203;SDS011;49297;43.210;27.914;2023-05-08T01:47:10;32.17;;;29.43;;
63203;SDS011;49297;43.210;27.914;2023-05-08T01:49:39;24.55;;;22.48;;
63203;SDS011;49297;43.210;27.914;2023-05-08T01:52:15;24.55;;;21.83;;
63203;SDS011;49297;43.210;27.914;2023-05-08T01:54:50;32.70;;;20.95;;
63203;SDS011;49297;43.210;27.914;2023-05-08T01:57:23;16.48;;;14.63;;
63203;SDS011;49297;43.210;27.914;2023-05-08T01:59:53;17.67;;;15.30;;
63203;SDS011;49297;43.210;27.914;2023-05-08T02:02:22;13.48;;;12.18;;
63203;SDS011;49297;43.210;27.914;2023-05-08T02:04:49;13.32;;;10.32;;
63203;SDS011;49297;43.210;27.914;2023-05-08T02:07:17;11.33;;;10.10;;
63203;SDS011;49297;43.210;27.914;2023-05-08T02:09:47;13.80;;;10.32;;
63203;SDS011;49297;43.210;27.914;2023-05-08T02:12:15;13.35;;;10.27;;
63203;SDS011;49297;43.210;27.914;2023-05-08T02:14:42;14.57;;;11.57;;
63203;SDS011;49297;43.210;27.914;2023-05-08T02:17:11;18.10;;;11.02;;
63203;SDS011;49297;43.210;27.914;2023-05-08T02:19:41;14.02;;;9.82;;
63203;SDS011;49297;43.210;27.914;2023-05-08T02:22:08;15.00;;;9.52;;
63203;SDS011;49297;43.210;27.914;2023-05-08T02:24:35;13.95;;;9.43;;
63203;SDS011;49297;43.210;27.914;2023-05-08T02:29:35;14.85;;;10.90;;
63203;SDS011;49297;43.210;27.914;2023-05-08T02:32:03;14.45;;;11.57;;
63203;SDS011;49297;43.210;27.914;2023-05-08T02:34:32;13.80;;;11.30;;
63203;SDS011;49297;43.210;27.914;2023-05-08T02:37:00;12.10;;;10.07;;
63203;SDS011;49297;43.210;27.914;2023-05-08T02:39:29;9.70;;;8.75;;
63203;SDS011;49297;43.210;27.914;2023-05-08T02:41:56;13.85;;;10.75;;
63203;SDS011;49297;43.210;27.914;2023-05-08T02:44:22;16.35;;;12.63;;
63203;SDS011;49297;43.210;27.914;2023-05-08T02:46:52;11.32;;;10.32;;
63203;SDS011;49297;43.210;27.914;2023-05-08T02:52:12;14.52;;;11.88;;
63203;SDS011;49297;43.210;27.914;2023-05-08T02:55:10;13.88;;;11.25;;
63203;SDS011;49297;43.210;27.914;2023-05-08T03:00:22;13.90;;;10.40;;
63203;SDS011;49297;43.210;27.914;2023-05-08T03:03:03;11.63;;;10.45;;
63203;SDS011;49297;43.210;27.914;2023-05-08T03:05:37;17.33;;;11.23;;
63203;SDS011;49297;43.210;27.914;2023-05-08T03:08:13;16.83;;;10.75;;
63203;SDS011;49297;43.210;27.914;2023-05-08T03:10:42;12.50;;;10.50;;
63203;SDS011;49297;43.210;27.914;2023-05-08T03:13:10;12.30;;;11.00;;
63203;SDS011;49297;43.210;27.914;2023-05-08T03:18:10;19.75;;;17.80;;
63203;SDS011;49297;43.210;27.914;2023-05-08T03:20:40;16.03;;;11.03;;
63203;SDS011;49297;43.210;27.914;2023-05-08T03:23:16;18.63;;;12.13;;
63203;SDS011;49297;43.210;27.914;2023-05-08T03:25:46;14.07;;;11.02;;
63203;SDS011;49297;43.210;27.914;2023-05-08T03:28:13;14.50;;;10.75;;
63203;SDS011;49297;43.210;27.914;2023-05-08T03:30:41;13.25;;;11.15;;
63203;SDS011;49297;43.210;27.914;2023-05-08T03:33:08;14.57;;;11.23;;
63203;SDS011;49297;43.210;27.914;2023-05-08T03:35:37;16.53;;;14.77;;
63203;SDS011;49297;43.210;27.914;2023-05-08T03:38:05;14.65;;;10.63;;
63203;SDS011;49297;43.210;27.914;2023-05-08T03:40:33;13.00;;;9.50;;
63203;SDS011;49297;43.210;27.914;2023-05-08T03:43:10;13.07;;;10.55;;
63203;SDS011;49297;43.210;27.914;2023-05-08T03:45:37;17.50;;;10.15;;
63203;SDS011;49297;43.210;27.914;2023-05-08T03:48:04;17.58;;;10.32;;
63203;SDS011;49297;43.210;27.914;2023-05-08T03:50:31;18.27;;;13.20;;
63203;SDS011;49297;43.210;27.914;2023-05-08T03:53:00;11.98;;;10.45;;
63203;SDS011;49297;43.210;27.914;2023-05-08T03:55:26;15.18;;;11.13;;
63203;SDS011;49297;43.210;27.914;2023-05-08T03:58:30;13.98;;;11.20;;
63203;SDS011;49297;43.210;27.914;2023-05-08T04:03:48;18.45;;;10.85;;
63203;SDS011;49297;43.210;27.914;2023-05-08T04:08:50;11.82;;;10.23;;
63203;SDS011;49297;43.210;27.914;2023-05-08T04:13:56;11.50;;;10.30;;
63203;SDS011;49297;43.210;27.914;2023-05-08T04:16:27;11.35;;;10.25;;
63203;SDS011;49297;43.210;27.914;2023-05-08T04:19:00;12.75;;;11.30;;
63203;SDS011;49297;43.210;27.914;2023-05-08T04:21:28;13.60;;;11.80;;
63203;SDS011;49297;43.210;27.914;2023-05-08T04:23:58;13.77;;;11.40;;
63203;SDS011;49297;43.210;27.914;2023-05-08T04:26:24;13.45;;;11.57;;
63203;SDS011;49297;43.210;27.914;2023-05-08T04:28:53;16.33;;;10.65;;
63203;SDS011;49297;43.210;27.914;2023-05-08T04:31:19;13.40;;;8.65;;
63203;SDS011;49297;43.210;27.914;2023-05-08T04:33:46;11.73;;;6.43;;
63203;SDS011;49297;43.210;27.914;2023-05-08T04:36:13;8.80;;;6.25;;
63203;SDS011;49297;43.210;27.914;2023-05-08T04:38:40;11.50;;;5.80;;
63203;SDS011;49297;43.210;27.914;2023-05-08T04:41:06;6.60;;;5.55;;
63203;SDS011;49297;43.210;27.914;2023-05-08T04:46:05;7.40;;;5.90;;
63203;SDS011;49297;43.210;27.914;2023-05-08T04:48:44;7.40;;;5.50;;
63203;SDS011;49297;43.210;27.914;2023-05-08T04:51:09;8.90;;;6.20;;
63203;SDS011;49297;43.210;27.914;2023-05-08T04:53:36;8.25;;;5.43;;
63203;SDS011;49297;43.210;27.914;2023-05-08T04:56:02;7.43;;;5.22;;
63203;SDS011;49297;43.210;27.914;2023-05-08T04:58:29;8.43;;;5.22;;
63203;SDS011;49297;43.210;27.914;2023-05-08T05:00:55;7.00;;;6.05;;
63203;SDS011;49297;43.210;27.914;2023-05-08T05:03:22;9.15;;;6.40;;
63203;SDS011;49297;43.210;27.914;2023-05-08T05:05:48;8.73;;;6.38;;
63203;SDS011;49297;43.210;27.914;2023-05-08T05:08:20;7.88;;;6.28;;
63203;SDS011;49297;43.210;27.914;2023-05-08T05:10:46;8.00;;;5.65;;
63203;SDS011;49297;43.210;27.914;2023-05-08T05:13:12;7.18;;;5.45;;
63203;SDS011;49297;43.210;27.914;2023-05-08T05:15:40;8.40;;;5.50;;
63203;SDS011;49297;43.210;27.914;2023-05-08T05:18:09;10.30;;;6.00;;
63203;SDS011;49297;43.210;27.914;2023-05-08T05:20:37;7.15;;;5.40;;
63203;SDS011;49297;43.210;27.914;2023-05-08T05:23:02;7.43;;;5.40;;
63203;SDS011;49297;43.210;27.914;2023-05-08T05:25:31;7.40;;;4.82;;
63203;SDS011;49297;43.210;27.914;2023-05-08T05:27:57;8.80;;;4.47;;
63203;SDS011;49297;43.210;27.914;2023-05-08T05:30:23;4.50;;;3.90;;
63203;SDS011;49297;43.210;27.914;2023-05-08T05:32:58;7.47;;;4.63;;
63203;SDS011;49297;43.210;27.914;2023-05-08T05:35:31;8.47;;;4.80;;
63203;SDS011;49297;43.210;27.914;2023-05-08T05:37:59;4.70;;;3.95;;
63203;SDS011;49297;43.210;27.914;2023-05-08T05:40:25;7.03;;;4.35;;
63203;SDS011;49297;43.210;27.914;2023-05-08T05:42:51;5.20;;;3.42;;
63203;SDS011;49297;43.210;27.914;2023-05-08T05:45:16;4.25;;;3.20;;
63203;SDS011;49297;43.210;27.914;2023-05-08T05:47:43;5.32;;;3.42;;
63203;SDS011;49297;43.210;27.914;2023-05-08T05:50:19;7.97;;;3.72;;
63203;SDS011;49297;43.210;27.914;2023-05-08T05:52:45;8.52;;;4.50;;
63203;SDS011;49297;43.210;27.914;2023-05-08T05:55:11;4.45;;;4.00;;
63203;SDS011;49297;43.210;27.914;2023-05-08T05:57:38;9.68;;;4.28;;
63203;SDS011;49297;43.210;27.914;2023-05-08T06:00:06;9.25;;;4.60;;
63203;SDS011;49297;43.210;27.914;2023-05-08T06:02:35;5.35;;;3.42;;
63203;SDS011;49297;43.210;27.914;2023-05-08T06:07:32;6.22;;;4.22;;
63203;SDS011;49297;43.210;27.914;2023-05-08T06:09:58;8.83;;;4.40;;
63203;SDS011;49297;43.210;27.914;2023-05-08T06:12:43;6.60;;;4.50;;
63203;SDS011;49297;43.210;27.914;2023-05-08T06:17:39;12.40;;;5.90;;
63203;SDS011;49297;43.210;27.914;2023-05-08T06:20:05;8.02;;;5.93;;
63203;SDS011;49297;43.210;27.914;2023-05-08T06:22:32;7.53;;;6.05;;
63203;SDS011;49297;43.210;27.914;2023-05-08T06:24:58;8.82;;;6.35;;
63203;SDS011;49297;43.210;27.914;2023-05-08T06:27:25;7.90;;;5.80;;
63203;SDS011;49297;43.210;27.914;2023-05-08T06:29:50;10.15;;;5.95;;
63203;SDS011;49297;43.210;27.914;2023-05-08T06:32:18;6.55;;;5.40;;
63203;SDS011;49297;43.210;27.914;2023-05-08T06:34:45;8.85;;;5.63;;
63203;SDS011;49297;43.210;27.914;2023-05-08T06:37:12;11.70;;;5.88;;
63203;SDS011;49297;43.210;27.914;2023-05-08T06:39:39;9.00;;;5.88;;
63203;SDS011;49297;43.210;27.914;2023-05-08T06:42:11;7.38;;;5.25;;
63203;SDS011;49297;43.210;27.914;2023-05-08T06:44:38;8.20;;;4.67;;
63203;SDS011;49297;43.210;27.914;2023-05-08T06:47:05;11.17;;;6.20;;
63203;SDS011;49297;43.210;27.914;2023-05-08T06:49:34;8.98;;;5.43;;
63203;SDS011;49297;43.210;27.914;2023-05-08T06:52:00;6.07;;;4.53;;
63203;SDS011;49297;43.210;27.914;2023-05-08T06:54:26;9.13;;;5.30;;
63203;SDS011;49297;43.210;27.914;2023-05-08T06:56:53;8.52;;;5.68;;
63203;SDS011;49297;43.210;27.914;2023-05-08T07:02:00;5.43;;;4.55;;
63203;SDS011;49297;43.210;27.914;2023-05-08T07:04:27;7.63;;;4.63;;
63203;SDS011;49297;43.210;27.914;2023-05-08T07:06:53;10.43;;;5.45;;
63203;SDS011;49297;43.210;27.914;2023-05-08T07:09:19;6.97;;;5.00;;
63203;SDS011;49297;43.210;27.914;2023-05-08T07:11:45;7.07;;;6.00;;
63203;SDS011;49297;43.210;27.914;2023-05-08T07:14:11;8.45;;;5.70;;
63203;SDS011;49297;43.210;27.914;2023-05-08T07:19:06;5.15;;;4.47;;
63203;SDS011;49297;43.210;27.914;2023-05-08T07:21:32;6.28;;;4.47;;
63203;SDS011;49297;43.210;27.914;2023-05-08T07:23:59;7.30;;;4.35;;
63203;SDS011;49297;43.210;27.914;2023-05-08T07:26:26;8.40;;;4.45;;
63203;SDS011;49297;43.210;27.914;2023-05-08T07:28:58;6.10;;;5.20;;
63203;SDS011;49297;43.210;27.914;2023-05-08T07:31:24;7.07;;;4.63;;
63203;SDS011;49297;43.210;27.914;2023-05-08T07:33:51;9.30;;;4.80;;
63203;SDS011;49297;43.210;27.914;2023-05-08T07:36:17;8.02;;;6.38;;
63203;SDS011;49297;43.210;27.914;2023-05-08T07:38:43;12.75;;;6.10;;
63203;SDS011;49297;43.210;27.914;2023-05-08T07:41:10;7.15;;;5.30;;
63203;SDS011;49297;43.210;27.914;2023-05-08T07:43:37;6.00;;;5.03;;
63203;SDS011;49297;43.210;27.914;2023-05-08T07:46:04;9.60;;;4.90;;
63203;SDS011;49297;43.210;27.914;2023-05-08T07:48:32;6.90;;;4.65;;
63203;SDS011;49297;43.210;27.914;2023-05-08T07:50:58;8.65;;;4.75;;
63203;SDS011;49297;43.210;27.914;2023-05-08T07:53:26;11.50;;;5.23;;
63203;SDS011;49297;43.210;27.914;2023-05-08T07:55:52;11.00;;;5.00;;
63203;SDS011;49297;43.210;27.914;2023-05-08T07:58:17;8.70;;;5.20;;
63203;SDS011;49297;43.210;27.914;2023-05-08T08:00:43;8.10;;;5.13;;
63203;SDS011;49297;43.210;27.914;2023-05-08T08:03:11;7.20;;;4.35;;
63203;SDS011;49297;43.210;27.914;2023-05-08T08:05:37;9.57;;;4.75;;
63203;SDS011;49297;43.210;27.914;2023-05-08T08:08:03;7.07;;;3.87;;
63203;SDS011;49297;43.210;27.914;2023-05-08T08:10:29;4.87;;;3.63;;
63203;SDS011;49297;43.210;27.914;2023-05-08T08:12:55;6.88;;;3.95;;
63203;SDS011;49297;43.210;27.914;2023-05-08T08:15:21;6.32;;;4.32;;
63203;SDS011;49297;43.210;27.914;2023-05-08T08:17:47;7.03;;;4.10;;
63203;SDS011;49297;43.210;27.914;2023-05-08T08:20:13;6.60;;;4.53;;
63203;SDS011;49297;43.210;27.914;2023-05-08T08:22:38;5.93;;;4.30;;
63203;SDS011;49297;43.210;27.914;2023-05-08T08:25:04;5.03;;;4.47;;
63203;SDS011;49297;43.210;27.914;2023-05-08T08:27:32;7.35;;;4.53;;
63203;SDS011;49297;43.210;27.914;2023-05-08T08:30:00;5.45;;;3.90;;
63203;SDS011;49297;43.210;27.914;2023-05-08T08:32:26;6.10;;;4.10;;
63203;SDS011;49297;43.210;27.914;2023-05-08T08:34:53;4.50;;;4.10;;
63203;SDS011;49297;43.210;27.914;2023-05-08T08:37:19;5.70;;;3.60;;
63203;SDS011;49297;43.210;27.914;2023-05-08T08:39:44;8.77;;;4.50;;
63203;SDS011;49297;43.210;27.914;2023-05-08T08:42:12;6.25;;;3.70;;
63203;SDS011;49297;43.210;27.914;2023-05-08T08:44:39;6.95;;;3.97;;
63203;SDS011;49297;43.210;27.914;2023-05-08T08:47:05;7.88;;;4.10;;
63203;SDS011;49297;43.210;27.914;2023-05-08T08:49:42;7.18;;;4.35;;
63203;SDS011;49297;43.210;27.914;2023-05-08T08:55:25;5.00;;;3.60;;
63203;SDS011;49297;43.210;27.914;2023-05-08T09:00:46;5.72;;;4.00;;
63203;SDS011;49297;43.210;27.914;2023-05-08T09:03:14;7.00;;;5.20;;
63203;SDS011;49297;43.210;27.914;2023-05-08T09:05:41;5.47;;;3.92;;
63203;SDS011;49297;43.210;27.914;2023-05-08T09:08:09;8.00;;;4.75;;
63203;SDS011;49297;43.210;27.914;2023-05-08T09:10:37;6.45;;;5.25;;
63203;SDS011;49297;43.210;27.914;2023-05-08T09:13:04;8.95;;;5.40;;
63203;SDS011;49297;43.210;27.914;2023-05-08T09:15:30;8.07;;;5.00;;
63203;SDS011;49297;43.210;27.914;2023-05-08T09:18:01;6.15;;;4.70;;
63203;SDS011;49297;43.210;27.914;2023-05-08T09:20:27;6.45;;;5.68;;
63203;SDS011;49297;43.210;27.914;2023-05-08T09:22:55;7.50;;;5.47;;
63203;SDS011;49297;43.210;27.914;2023-05-08T09:25:25;6.27;;;4.10;;
63203;SDS011;49297;43.210;27.914;2023-05-08T09:27:50;8.17;;;5.03;;
63203;SDS011;49297;43.210;27.914;2023-05-08T09:30:17;5.78;;;4.03;;
63203;SDS011;49297;43.210;27.914;2023-05-08T09:32:43;4.15;;;3.55;;
63203;SDS011;49297;43.210;27.914;2023-05-08T09:35:10;6.67;;;3.47;;
63203;SDS011;49297;43.210;27.914;2023-05-08T09:37:45;5.88;;;3.80;;
63203;SDS011;49297;43.210;27.914;2023-05-08T09:40:17;7.60;;;4.88;;
63203;SDS011;49297;43.210;27.914;2023-05-08T09:42:44;6.68;;;3.33;;
63203;SDS011;49297;43.210;27.914;2023-05-08T09:45:12;4.87;;;3.93;;
63203;SDS011;49297;43.210;27.914;2023-05-08T09:47:52;8.10;;;4.03;;
63203;SDS011;49297;43.210;27.914;2023-05-08T09:50:18;5.15;;;4.10;;
63203;SDS011;49297;43.210;27.914;2023-05-08T09:52:48;4.72;;;4.03;;
63203;SDS011;49297;43.210;27.914;2023-05-08T09:55:15;10.05;;;4.53;;
63203;SDS011;49297;43.210;27.914;2023-05-08T09:57:55;5.30;;;3.40;;
63203;SDS011;49297;43.210;27.914;2023-05-08T10:00:27;10.07;;;3.78;;
63203;SDS011;49297;43.210;27.914;2023-05-08T10:03:00;5.47;;;3.60;;
63203;SDS011;49297;43.210;27.914;2023-05-08T10:05:31;5.68;;;3.15;;
63203;SDS011;49297;43.210;27.914;2023-05-08T10:08:16;5.22;;;3.33;;
63203;SDS011;49297;43.210;27.914;2023-05-08T10:10:45;4.13;;;3.08;;
63203;SDS011;49297;43.210;27.914;2023-05-08T10:13:12;7.38;;;3.42;;
63203;SDS011;49297;43.210;27.914;2023-05-08T10:15:42;5.93;;;3.15;;
63203;SDS011;49297;43.210;27.914;2023-05-08T10:18:09;3.80;;;3.03;;
63203;SDS011;49297;43.210;27.914;2023-05-08T10:20:40;6.13;;;3.10;;
63203;SDS011;49297;43.210;27.914;2023-05-08T10:23:16;6.25;;;3.70;;
63203;SDS011;49297;43.210;27.914;2023-05-08T10:25:47;4.93;;;2.90;;
63203;SDS011;49297;43.210;27.914;2023-05-08T10:28:28;9.05;;;3.40;;
63203;SDS011;49297;43.210;27.914;2023-05-08T10:31:01;5.55;;;3.15;;
63203;SDS011;49297;43.210;27.914;2023-05-08T10:33:30;4.32;;;3.47;;
63203;SDS011;49297;43.210;27.914;2023-05-08T10:35:58;4.65;;;3.22;;
63203;SDS011;49297;43.210;27.914;2023-05-08T10:38:25;7.90;;;3.50;;
63203;SDS011;49297;43.210;27.914;2023-05-08T10:40:52;8.23;;;3.67;;
63203;SDS011;49297;43.210;27.914;2023-05-08T10:43:27;4.07;;;3.07;;
63203;SDS011;49297;43.210;27.914;2023-05-08T10:45:55;5.20;;;3.25;;
63203;SDS011;49297;43.210;27.914;2023-05-08T10:48:38;5.05;;;3.25;;
63203;SDS011;49297;43.210;27.914;2023-05-08T10:56:17;7.10;;;3.78;;
63203;SDS011;49297;43.210;27.914;2023-05-08T11:01:19;4.57;;;2.90;;
63203;SDS011;49297;43.210;27.914;2023-05-08T11:03:53;4.05;;;2.78;;
63203;SDS011;49297;43.210;27.914;2023-05-08T11:09:07;4.68;;;2.95;;
63203;SDS011;49297;43.210;27.914;2023-05-08T11:11:37;3.67;;;2.78;;
63203;SDS011;49297;43.210;27.914;2023-05-08T11:14:10;5.43;;;2.55;;
63203;SDS011;49297;43.210;27.914;2023-05-08T11:19:21;5.82;;;2.60;;
63203;SDS011;49297;43.210;27.914;2023-05-08T11:24:38;4.63;;;2.37;;
63203;SDS011;49297;43.210;27.914;2023-05-08T11:27:05;5.20;;;3.25;;
63203;SDS011;49297;43.210;27.914;2023-05-08T11:29:32;5.63;;;2.90;;
63203;SDS011;49297;43.210;27.914;2023-05-08T11:31:58;6.82;;;2.78;;
63203;SDS011;49297;43.210;27.914;2023-05-08T11:37:08;3.17;;;2.65;;
63203;SDS011;49297;43.210;27.914;2023-05-08T11:39:35;6.10;;;3.47;;
63203;SDS011;49297;43.210;27.914;2023-05-08T11:45:05;4.65;;;2.88;;
63203;SDS011;49297;43.210;27.914;2023-05-08T11:47:38;3.83;;;2.40;;
63203;SDS011;49297;43.210;27.914;2023-05-08T11:50:09;4.10;;;3.05;;
63203;SDS011;49297;43.210;27.914;2023-05-08T11:52:37;4.25;;;3.10;;
63203;SDS011;49297;43.210;27.914;2023-05-08T11:55:05;4.05;;;3.25;;
63203;SDS011;49297;43.210;27.914;2023-05-08T11:57:36;4.15;;;2.63;;
63203;SDS011;49297;43.210;27.914;2023-05-08T12:00:12;6.38;;;3.03;;
63203;SDS011;49297;43.210;27.914;2023-05-08T12:02:43;4.33;;;3.10;;
63203;SDS011;49297;43.210;27.914;2023-05-08T12:05:12;4.75;;;3.30;;
63203;SDS011;49297;43.210;27.914;2023-05-08T12:07:45;3.47;;;2.83;;
63203;SDS011;49297;43.210;27.914;2023-05-08T12:10:12;5.28;;;2.67;;
63203;SDS011;49297;43.210;27.914;2023-05-08T12:12:42;4.03;;;3.53;;
63203;SDS011;49297;43.210;27.914;2023-05-08T12:15:10;5.75;;;3.20;;
63203;SDS011;49297;43.210;27.914;2023-05-08T12:17:38;4.20;;;3.20;;
63203;SDS011;49297;43.210;27.914;2023-05-08T12:20:08;5.18;;;3.45;;
63203;SDS011;49297;43.210;27.914;2023-05-08T12:22:48;6.50;;;3.92;;
63203;SDS011;49297;43.210;27.914;2023-05-08T12:25:16;6.03;;;3.88;;
63203;SDS011;49297;43.210;27.914;2023-05-08T12:27:42;3.83;;;3.38;;
63203;SDS011;49297;43.210;27.914;2023-05-08T12:30:09;6.63;;;3.65;;
63203;SDS011;49297;43.210;27.914;2023-05-08T12:32:40;5.33;;;3.93;;
63203;SDS011;49297;43.210;27.914;2023-05-08T12:35:07;7.15;;;3.83;;
63203;SDS011;49297;43.210;27.914;2023-05-08T12:37:34;6.00;;;4.03;;
63203;SDS011;49297;43.210;27.914;2023-05-08T12:40:01;3.72;;;3.40;;
63203;SDS011;49297;43.210;27.914;2023-05-08T12:42:44;6.05;;;3.78;;
63203;SDS011;49297;43.210;27.914;2023-05-08T12:45:16;4.47;;;4.07;;
63203;SDS011;49297;43.210;27.914;2023-05-08T12:50:22;4.45;;;3.70;;
63203;SDS011;49297;43.210;27.914;2023-05-08T12:52:51;5.73;;;4.67;;
63203;SDS011;49297;43.210;27.914;2023-05-08T12:57:57;5.40;;;3.70;;
63203;SDS011;49297;43.210;27.914;2023-05-08T13:00:38;6.03;;;4.47;;
63203;SDS011;49297;43.210;27.914;2023-05-08T13:03:13;6.97;;;3.90;;
63203;SDS011;49297;43.210;27.914;2023-05-08T13:05:55;5.15;;;3.92;;
63203;SDS011;49297;43.210;27.914;2023-05-08T13:08:31;8.32;;;4.35;;
63203;SDS011;49297;43.210;27.914;2023-05-08T13:10:59;6.40;;;3.80;;
63203;SDS011;49297;43.210;27.914;2023-05-08T13:13:28;5.23;;;3.17;;
63203;SDS011;49297;43.210;27.914;2023-05-08T13:15:57;4.00;;;3.30;;
63203;SDS011;49297;43.210;27.914;2023-05-08T13:18:26;6.93;;;3.97;;
63203;SDS011;49297;43.210;27.914;2023-05-08T13:20:54;6.80;;;3.15;;
63203;SDS011;49297;43.210;27.914;2023-05-08T13:23:21;7.73;;;3.60;;
63203;SDS011;49297;43.210;27.914;2023-05-08T13:25:47;5.10;;;3.30;;
63203;SDS011;49297;43.210;27.914;2023-05-08T13:28:13;5.30;;;3.05;;
63203;SDS011;49297;43.210;27.914;2023-05-08T13:30:40;15.40;;;3.67;;
63203;SDS011;49297;43.210;27.914;2023-05-08T13:33:07;7.05;;;3.35;;
63203;SDS011;49297;43.210;27.914;2023-05-08T13:35:33;10.52;;;4.32;;
63203;SDS011;49297;43.210;27.914;2023-05-08T13:38:00;6.10;;;4.95;;
63203;SDS011;49297;43.210;27.914;2023-05-08T13:40:26;5.38;;;3.80;;
63203;SDS011;49297;43.210;27.914;2023-05-08T13:42:52;10.47;;;3.77;;
63203;SDS011;49297;43.210;27.914;2023-05-08T13:45:18;4.37;;;3.27;;
63203;SDS011;49297;43.210;27.914;2023-05-08T13:47:45;4.43;;;3.63;;
63203;SDS011;49297;43.210;27.914;2023-05-08T13:50:12;4.75;;;3.63;;
63203;SDS011;49297;43.210;27.914;2023-05-08T13:52:40;4.90;;;3.88;;
63203;SDS011;49297;43.210;27.914;2023-05-08T13:55:07;3.97;;;3.50;;
63203;SDS011;49297;43.210;27.914;2023-05-08T13:57:34;5.10;;;3.35;;
63203;SDS011;49297;43.210;27.914;2023-05-08T14:00:03;4.40;;;3.47;;
63203;SDS011;49297;43.210;27.914;2023-05-08T14:02:32;5.68;;;3.30;;
63203;SDS011;49297;43.210;27.914;2023-05-08T14:04:58;4.13;;;3.58;;
63203;SDS011;49297;43.210;27.914;2023-05-08T14:07:25;4.38;;;3.80;;
63203;SDS011;49297;43.210;27.914;2023-05-08T14:09:51;5.70;;;3.38;;
63203;SDS011;49297;43.210;27.914;2023-05-08T14:12:18;4.18;;;3.58;;
63203;SDS011;49297;43.210;27.914;2023-05-08T14:14:44;4.47;;;2.90;;
63203;SDS011;49297;43.210;27.914;2023-05-08T14:17:10;5.80;;;3.38;;
63203;SDS011;49297;43.210;27.914;2023-05-08T14:19:36;6.20;;;4.03;;
63203;SDS011;49297;43.210;27.914;2023-05-08T14:22:02;6.17;;;4.40;;
63203;SDS011;49297;43.210;27.914;2023-05-08T14:24:28;5.73;;;5.03;;
63203;SDS011;49297;43.210;27.914;2023-05-08T14:26:59;5.18;;;3.55;;
63203;SDS011;49297;43.210;27.914;2023-05-08T14:32:00;3.78;;;3.35;;
63203;SDS011;49297;43.210;27.914;2023-05-08T14:34:27;6.32;;;3.38;;
63203;SDS011;49297;43.210;27.914;2023-05-08T14:36:53;5.20;;;3.05;;
63203;SDS011;49297;43.210;27.914;2023-05-08T14:39:19;7.82;;;4.10;;
63203;SDS011;49297;43.210;27.914;2023-05-08T14:41:46;4.43;;;2.85;;
63203;SDS011;49297;43.210;27.914;2023-05-08T14:44:12;3.17;;;2.88;;
63203;SDS011;49297;43.210;27.914;2023-05-08T14:46:39;6.63;;;2.95;;
63203;SDS011;49297;43.210;27.914;2023-05-08T14:49:05;6.03;;;3.15;;
63203;SDS011;49297;43.210;27.914;2023-05-08T14:51:31;8.95;;;3.00;;
63203;SDS011;49297;43.210;27.914;2023-05-08T14:53:56;4.43;;;3.85;;
63203;SDS011;49297;43.210;27.914;2023-05-08T14:56:23;6.23;;;3.43;;
63203;SDS011;49297;43.210;27.914;2023-05-08T14:58:50;6.18;;;3.53;;
63203;SDS011;49297;43.210;27.914;2023-05-08T15:01:17;9.10;;;3.75;;
63203;SDS011;49297;43.210;27.914;2023-05-08T15:03:43;7.30;;;3.08;;
63203;SDS011;49297;43.210;27.914;2023-05-08T15:06:12;6.35;;;3.65;;
63203;SDS011;49297;43.210;27.914;2023-05-08T15:08:39;4.63;;;3.33;;
63203;SDS011;49297;43.210;27.914;2023-05-08T15:11:06;4.43;;;3.33;;
63203;SDS011;49297;43.210;27.914;2023-05-08T15:13:33;8.13;;;4.07;;
63203;SDS011;49297;43.210;27.914;2023-05-08T15:15:59;5.90;;;3.77;;
63203;SDS011;49297;43.210;27.914;2023-05-08T15:18:26;8.07;;;3.83;;
63203;SDS011;49297;43.210;27.914;2023-05-08T15:20:53;6.50;;;3.50;;
63203;SDS011;49297;43.210;27.914;2023-05-08T15:23:19;9.05;;;4.53;;
63203;SDS011;49297;43.210;27.914;2023-05-08T15:25:45;5.50;;;4.40;;
63203;SDS011;49297;43.210;27.914;2023-05-08T15:28:11;10.93;;;6.55;;
63203;SDS011;49297;43.210;27.914;2023-05-08T15:30:38;5.47;;;3.97;;
63203;SDS011;49297;43.210;27.914;2023-05-08T15:33:04;7.32;;;4.57;;
63203;SDS011;49297;43.210;27.914;2023-05-08T15:35:29;6.55;;;4.15;;
63203;SDS011;49297;43.210;27.914;2023-05-08T15:37:55;5.88;;;4.28;;
63203;SDS011;49297;43.210;27.914;2023-05-08T15:40:22;8.10;;;4.28;;
63203;SDS011;49297;43.210;27.914;2023-05-08T15:42:48;7.63;;;4.18;;
63203;SDS011;49297;43.210;27.914;2023-05-08T15:45:14;6.05;;;4.10;;
63203;SDS011;49297;43.210;27.914;2023-05-08T15:47:40;9.68;;;4.88;;
63203;SDS011;49297;43.210;27.914;2023-05-08T15:50:06;5.70;;;4.25;;
63203;SDS011;49297;43.210;27.914;2023-05-08T15:52:32;8.07;;;4.15;;
63203;SDS011;49297;43.210;27.914;2023-05-08T15:54:59;6.15;;;4.78;;
63203;SDS011;49297;43.210;27.914;2023-05-08T15:57:25;4.55;;;4.10;;
63203;SDS011;49297;43.210;27.914;2023-05-08T15:59:51;5.70;;;4.35;;
63203;SDS011;49297;43.210;27.914;2023-05-08T16:02:17;6.93;;;4.90;;
63203;SDS011;49297;43.210;27.914;2023-05-08T16:04:43;9.40;;;5.00;;
63203;SDS011;49297;43.210;27.914;2023-05-08T16:07:09;7.97;;;4.88;;